createdAt,value
2023-01-29T00:01:23.318Z,96980.59
2023-01-29T00:03:52.775Z,96981.69
2023-01-29T00:06:19.546Z,96980.59
2023-01-29T00:08:46.837Z,96981.66
2023-01-29T00:11:14.085Z,96960.44
2023-01-29T00:13:41.344Z,96983.78
2023-01-29T00:16:08.250Z,96979.25
2023-01-29T00:18:39.029Z,96997.03
2023-01-29T00:21:13.143Z,96994.28
2023-01-29T00:23:39.846Z,96987.66
2023-01-29T00:26:06.882Z,96983.78
2023-01-29T00:28:33.657Z,96990.56
2023-01-29T00:31:25.265Z,96916.69
2023-01-29T00:33:52.414Z,97001.72
2023-01-29T00:36:21.042Z,96975.81
2023-01-29T00:38:54.854Z,97001.09
2023-01-29T00:41:41.039Z,96998.84
2023-01-29T00:44:26.270Z,96999.50
2023-01-29T00:46:52.957Z,96995.78
2023-01-29T00:49:19.601Z,96987.75
2023-01-29T00:52:06.168Z,96998.03
2023-01-29T00:54:33.243Z,96997.88
2023-01-29T00:57:00.163Z,96879.97
2023-01-29T00:59:27.234Z,96971.44
2023-01-29T01:02:12.356Z,96995.44
2023-01-29T01:04:39.028Z,97006.38
2023-01-29T01:07:06.311Z,96966.00
2023-01-29T01:09:54.113Z,96994.97
2023-01-29T01:12:21.681Z,96972.91
2023-01-29T01:14:49.252Z,96985.31
2023-01-29T01:17:15.953Z,96976.91
2023-01-29T01:19:42.787Z,96949.09
2023-01-29T01:22:09.405Z,96999.44
2023-01-29T01:24:36.926Z,97006.03
2023-01-29T01:27:03.721Z,96975.94
2023-01-29T01:29:30.359Z,97006.53
2023-01-29T01:31:56.997Z,96998.16
2023-01-29T01:34:23.941Z,96955.09
2023-01-29T01:36:50.559Z,97006.88
2023-01-29T01:39:17.179Z,97014.13
2023-01-29T01:41:43.832Z,97010.25
2023-01-29T01:44:47.883Z,97014.44
2023-01-29T01:47:15.595Z,97018.97
2023-01-29T01:49:43.737Z,97018.31
2023-01-29T01:52:11.822Z,97006.38
2023-01-29T01:54:38.573Z,97013.78
2023-01-29T01:57:15.780Z,97020.56
2023-01-29T01:59:53.098Z,97031.47
2023-01-29T02:02:38.872Z,97029.38
2023-01-29T02:05:24.198Z,97039.22
2023-01-29T02:08:10.289Z,97037.47
2023-01-29T02:10:42.828Z,97029.75
2023-01-29T02:13:10.081Z,97011.06
2023-01-29T02:15:36.657Z,96978.91
2023-01-29T02:18:03.669Z,96976.34
2023-01-29T02:20:34.523Z,96979.56
2023-01-29T02:23:16.093Z,97007.19
2023-01-29T02:25:45.855Z,97030.22
2023-01-29T02:28:34.185Z,97036.69
2023-01-29T02:31:20.342Z,97029.09
2023-01-29T02:34:01.635Z,97030.38
2023-01-29T02:36:43.042Z,97038.59
2023-01-29T02:39:36.390Z,97033.63
2023-01-29T02:42:15.407Z,97036.69
2023-01-29T02:44:48.932Z,97000.78
2023-01-29T02:47:30.925Z,97046.00
2023-01-29T02:50:23.911Z,97043.78
2023-01-29T02:52:56.815Z,97042.47
2023-01-29T02:55:51.599Z,97048.75
2023-01-29T02:58:46.443Z,97046.66
2023-01-29T03:01:31.994Z,96974.56
2023-01-29T03:04:06.195Z,97044.25
2023-01-29T03:06:38.365Z,97042.81
2023-01-29T03:09:14.753Z,96986.94
2023-01-29T03:11:44.819Z,97059.53
2023-01-29T03:14:21.193Z,97027.97
2023-01-29T03:16:51.136Z,96997.59
2023-01-29T03:19:28.986Z,97060.50
2023-01-29T03:22:00.741Z,97001.75
2023-01-29T03:25:07.584Z,97048.91
2023-01-29T03:27:59.974Z,97073.50
2023-01-29T03:30:49.035Z,96988.25
2023-01-29T03:33:18.755Z,97039.09
2023-01-29T03:35:53.766Z,97046.00
2023-01-29T03:38:20.652Z,97052.25
2023-01-29T03:40:58.246Z,97053.41
2023-01-29T03:43:38.246Z,96735.00
2023-01-29T03:46:18.964Z,97055.50
2023-01-29T03:49:12.228Z,97058.06
2023-01-29T03:51:45.073Z,96996.28
2023-01-29T03:54:29.698Z,97060.66
2023-01-29T03:57:02.987Z,97053.59
2023-01-29T03:59:48.424Z,97055.50
2023-01-29T04:02:27.892Z,97066.59
2023-01-29T04:05:03.480Z,97062.75
2023-01-29T04:07:33.373Z,97070.13
2023-01-29T04:10:15.292Z,97062.41
2023-01-29T04:12:56.751Z,97044.22
2023-01-29T04:15:26.023Z,97062.25
2023-01-29T04:17:53.377Z,97070.28
2023-01-29T04:20:20.837Z,97070.63
2023-01-29T04:22:49.227Z,97053.88
2023-01-29T04:25:26.545Z,97058.06
2023-01-29T04:28:16.367Z,97050.31
2023-01-29T04:31:02.905Z,97048.03
2023-01-29T04:33:33.720Z,97089.44
2023-01-29T04:36:22.059Z,97080.91
2023-01-29T04:39:06.735Z,97082.53
2023-01-29T04:41:41.833Z,97079.63
2023-01-29T04:44:24.624Z,97098.44
2023-01-29T04:47:09.537Z,97093.44
2023-01-29T04:49:54.887Z,97100.50
2023-01-29T04:52:38.316Z,97099.69
2023-01-29T04:55:07.778Z,97105.47
2023-01-29T04:57:37.259Z,97111.56
2023-01-29T05:00:08.617Z,97103.06
2023-01-29T05:02:39.329Z,97087.44
2023-01-29T05:05:07.407Z,97109.19
2023-01-29T05:07:37.386Z,97113.97
2023-01-29T05:10:06.837Z,97120.53
2023-01-29T05:12:35.861Z,97124.22
2023-01-29T05:15:08.402Z,97126.28
2023-01-29T05:17:35.078Z,97128.69
2023-01-29T05:20:01.687Z,97135.16
2023-01-29T05:22:29.213Z,97137.13
2023-01-29T05:24:55.842Z,97111.34
2023-01-29T05:27:53.776Z,97146.09
2023-01-29T05:30:20.385Z,97143.03
2023-01-29T05:32:46.989Z,97150.91
2023-01-29T05:35:13.997Z,97147.06
2023-01-29T05:37:40.926Z,97153.16
2023-01-29T05:40:09.686Z,97168.28
2023-01-29T05:42:36.573Z,97130.06
2023-01-29T05:45:03.507Z,97154.97
2023-01-29T05:47:30.098Z,97170.56
2023-01-29T05:49:56.697Z,97171.28
2023-01-29T05:52:23.292Z,97177.25
2023-01-29T05:54:49.862Z,97153.44
2023-01-29T05:57:16.473Z,97174.22
2023-01-29T05:59:43.046Z,97178.44
2023-01-29T06:02:09.677Z,97185.06
2023-01-29T06:04:36.323Z,97166.31
2023-01-29T06:07:03.525Z,97196.06
2023-01-29T06:09:30.135Z,97195.53
2023-01-29T06:11:56.736Z,97154.69
2023-01-29T06:14:23.298Z,97168.53
2023-01-29T06:16:49.868Z,97201.72
2023-01-29T06:19:18.192Z,97180.34
2023-01-29T06:21:44.771Z,97180.56
2023-01-29T06:24:11.444Z,97207.63
2023-01-29T06:26:38.047Z,97176.72
2023-01-29T06:29:04.602Z,97205.34
2023-01-29T06:31:39.829Z,97095.19
2023-01-29T06:34:09.847Z,97207.63
2023-01-29T06:36:36.801Z,97207.00
2023-01-29T06:39:04.165Z,97215.97
2023-01-29T06:41:30.923Z,97221.34
2023-01-29T06:43:57.515Z,97220.53
2023-01-29T06:46:24.175Z,97223.22
2023-01-29T06:48:50.924Z,97231.81
2023-01-29T06:51:17.559Z,97228.44
2023-01-29T06:53:46.039Z,97232.53
2023-01-29T06:56:13.251Z,97149.47
2023-01-29T06:58:39.845Z,97234.38
2023-01-29T07:01:12.603Z,97086.53
2023-01-29T07:03:42.497Z,97232.41
2023-01-29T07:06:09.501Z,97239.81
2023-01-29T07:08:40.269Z,97244.06
2023-01-29T07:11:07.710Z,97219.31
2023-01-29T07:13:34.292Z,97184.22
2023-01-29T07:16:02.202Z,97237.91
2023-01-29T07:18:29.767Z,97233.25
2023-01-29T07:20:57.429Z,97236.94
2023-01-29T07:23:24.964Z,97242.88
2023-01-29T07:25:51.874Z,97170.91
2023-01-29T07:28:20.627Z,97253.41
2023-01-29T07:30:47.459Z,97246.97
2023-01-29T07:33:14.037Z,97246.63
2023-01-29T07:35:42.916Z,97244.03
2023-01-29T07:38:11.162Z,96989.25
2023-01-29T07:40:38.077Z,97248.69
2023-01-29T07:43:06.612Z,97234.09
2023-01-29T07:45:36.909Z,97254.41
2023-01-29T07:48:05.066Z,97256.19
2023-01-29T07:50:33.398Z,97259.00
2023-01-29T07:53:00.532Z,97245.22
2023-01-29T07:55:27.723Z,97269.84
2023-01-29T07:57:58.752Z,97264.72
2023-01-29T08:00:25.538Z,97271.63
2023-01-29T08:02:52.131Z,97259.34
2023-01-29T08:05:19.080Z,97272.94
2023-01-29T08:07:49.342Z,97194.47
2023-01-29T08:10:24.106Z,97259.13
2023-01-29T08:12:58.478Z,97251.19
2023-01-29T08:15:25.816Z,97259.25
2023-01-29T08:17:58.095Z,97262.63
2023-01-29T08:20:25.652Z,97279.56
2023-01-29T08:23:00.176Z,97276.19
2023-01-29T08:25:27.659Z,97279.09
2023-01-29T08:27:54.649Z,97277.78
2023-01-29T08:30:21.287Z,97192.41
2023-01-29T08:32:47.878Z,97283.28
2023-01-29T08:35:14.494Z,97288.75
2023-01-29T08:37:41.103Z,97285.53
2023-01-29T08:40:09.532Z,97291.34
2023-01-29T08:42:36.563Z,97273.63
2023-01-29T08:45:03.484Z,97305.88
2023-01-29T08:47:30.195Z,97283.91
2023-01-29T08:49:56.831Z,97292.63
2023-01-29T08:52:23.399Z,97289.22
2023-01-29T08:54:50.024Z,97237.66
2023-01-29T08:57:16.759Z,97294.88
2023-01-29T08:59:43.335Z,97226.38
2023-01-29T09:02:11.936Z,97306.16
2023-01-29T09:04:38.525Z,97300.53
2023-01-29T09:07:05.071Z,97290.19
2023-01-29T09:09:31.623Z,97283.44
2023-01-29T09:11:58.193Z,97279.41
2023-01-29T09:14:24.849Z,97308.09
2023-01-29T09:16:51.480Z,97297.41
2023-01-29T09:19:18.098Z,97302.41
2023-01-29T09:21:44.702Z,97290.34
2023-01-29T09:24:11.346Z,97243.88
2023-01-29T09:26:39.714Z,97248.69
2023-01-29T09:29:06.806Z,97298.97
2023-01-29T09:31:33.680Z,97271.84
2023-01-29T09:34:00.411Z,97295.22
2023-01-29T09:36:27.034Z,97259.75
2023-01-29T09:38:53.578Z,97254.38
2023-01-29T09:41:57.768Z,97279.63
2023-01-29T09:44:30.394Z,97281.41
2023-01-29T09:47:00.243Z,97224.16
2023-01-29T09:49:34.253Z,97222.50
2023-01-29T09:52:22.327Z,97282.16
2023-01-29T09:54:52.687Z,97271.38
2023-01-29T09:57:25.983Z,97281.88
2023-01-29T09:59:52.517Z,97274.72
2023-01-29T10:02:37.780Z,97269.88
2023-01-29T10:05:16.448Z,97271.03
2023-01-29T10:08:08.209Z,97258.31
2023-01-29T10:10:49.587Z,97254.16
2023-01-29T10:13:34.927Z,97262.63
2023-01-29T10:16:07.290Z,97260.75
2023-01-29T10:18:59.024Z,97249.59
2023-01-29T10:21:52.821Z,97249.47
2023-01-29T10:24:32.498Z,97254.41
2023-01-29T10:27:00.481Z,97246.88
2023-01-29T10:29:28.911Z,97243.78
2023-01-29T10:32:04.848Z,97244.59
2023-01-29T10:34:35.587Z,97235.66
2023-01-29T10:37:15.560Z,97243.13
2023-01-29T10:39:42.300Z,97226.34
2023-01-29T10:42:31.092Z,97226.03
2023-01-29T10:45:06.635Z,97222.19
2023-01-29T10:47:45.508Z,97220.59
2023-01-29T10:50:12.064Z,97222.66
2023-01-29T10:53:03.357Z,97214.19
2023-01-29T10:55:38.846Z,97207.03
2023-01-29T10:58:05.450Z,97208.22
2023-01-29T11:00:40.182Z,97197.88
2023-01-29T11:03:27.041Z,97214.31
2023-01-29T11:06:10.415Z,97206.16
2023-01-29T11:09:10.748Z,97202.03
2023-01-29T11:12:11.219Z,97199.84
2023-01-29T11:14:47.928Z,97201.44
2023-01-29T11:17:17.017Z,97144.84
2023-01-29T11:19:46.590Z,97177.25
2023-01-29T11:22:20.013Z,97138.91
2023-01-29T11:24:47.694Z,97159.81
2023-01-29T11:27:25.983Z,97183.41
2023-01-29T11:29:54.037Z,97178.13
2023-01-29T11:32:23.657Z,97181.44
2023-01-29T11:35:05.936Z,97177.66
2023-01-29T11:37:38.542Z,97171.63
2023-01-29T11:40:34.319Z,97174.03
2023-01-29T11:43:27.064Z,97166.13
2023-01-29T11:45:57.778Z,97129.25
2023-01-29T11:48:32.418Z,97146.31
2023-01-29T11:51:00.834Z,97166.88
2023-01-29T11:53:34.141Z,97171.03
2023-01-29T11:56:03.989Z,97173.34
2023-01-29T11:58:34.915Z,97164.63
2023-01-29T12:01:02.910Z,97089.59
2023-01-29T12:03:37.428Z,97173.09
2023-01-29T12:06:31.895Z,97158.44
2023-01-29T12:09:01.646Z,97149.25
2023-01-29T12:11:33.187Z,97130.44
2023-01-29T12:14:23.567Z,97145.34
2023-01-29T12:17:06.323Z,97146.03
2023-01-29T12:19:38.726Z,97153.94
2023-01-29T12:22:39.676Z,97156.38
2023-01-29T12:25:21.573Z,97158.41
2023-01-29T12:28:23.080Z,97152.84
2023-01-29T12:30:58.463Z,97159.97
2023-01-29T12:33:50.330Z,97078.00
2023-01-29T12:36:24.653Z,97162.59
2023-01-29T12:38:51.283Z,97163.72
2023-01-29T12:41:23.757Z,97154.81
2023-01-29T12:43:56.241Z,97167.44
2023-01-29T12:46:30.241Z,97161.16
2023-01-29T12:49:01.209Z,97106.19
2023-01-29T12:51:37.801Z,97165.94
2023-01-29T12:54:09.134Z,97161.13
2023-01-29T12:56:41.361Z,97163.25
2023-01-29T12:59:45.593Z,97168.63
2023-01-29T13:02:27.285Z,97168.63
2023-01-29T13:05:02.817Z,97164.34
2023-01-29T13:07:34.338Z,97048.94
2023-01-29T13:10:10.438Z,97162.31
2023-01-29T13:12:40.116Z,97165.78
2023-01-29T13:15:18.074Z,97165.44
2023-01-29T13:17:53.029Z,97168.13
2023-01-29T13:20:38.684Z,97164.47
2023-01-29T13:23:22.052Z,97163.13
2023-01-29T13:25:52.615Z,97160.63
2023-01-29T13:28:21.765Z,97136.06
2023-01-29T13:31:11.297Z,97161.66
2023-01-29T13:33:40.333Z,97159.22
2023-01-29T13:36:16.397Z,97161.94
2023-01-29T13:38:45.170Z,97154.03
2023-01-29T13:41:12.279Z,97163.53
2023-01-29T13:43:42.623Z,97170.56
2023-01-29T13:46:15.297Z,97165.97
2023-01-29T13:48:48.113Z,97176.66
2023-01-29T13:51:20.595Z,97169.94
2023-01-29T13:53:58.546Z,97174.78
2023-01-29T13:56:34.184Z,97175.84
2023-01-29T13:59:03.702Z,97190.84
2023-01-29T14:01:45.611Z,97179.13
2023-01-29T14:04:30.695Z,97175.78
2023-01-29T14:07:03.176Z,97183.25
2023-01-29T14:09:38.653Z,97176.00
2023-01-29T14:12:25.225Z,97174.13
2023-01-29T14:15:04.348Z,97178.66
2023-01-29T14:17:31.137Z,97180.69
2023-01-29T14:20:20.536Z,97184.59
2023-01-29T14:22:56.692Z,97176.25
2023-01-29T14:25:29.900Z,97125.75
2023-01-29T14:27:58.829Z,97105.47
2023-01-29T14:30:27.797Z,97181.19
2023-01-29T14:32:55.075Z,97168.06
2023-01-29T14:35:28.217Z,97188.13
2023-01-29T14:38:00.697Z,97192.81
2023-01-29T14:40:29.864Z,97084.72
2023-01-29T14:43:08.917Z,97197.78
2023-01-29T14:45:37.612Z,97182.50
2023-01-29T14:48:10.305Z,97191.88
2023-01-29T14:50:36.927Z,97181.00
2023-01-29T14:53:30.046Z,97178.75
2023-01-29T14:55:59.612Z,97183.56
2023-01-29T14:58:42.147Z,97194.66
2023-01-29T15:01:26.726Z,97120.63
2023-01-29T15:04:00.604Z,97197.22
2023-01-29T15:06:48.043Z,97151.03
2023-01-29T15:09:22.057Z,97194.66
2023-01-29T15:12:27.380Z,97188.19
2023-01-29T15:15:03.343Z,97198.59
2023-01-29T15:17:38.097Z,97195.59
2023-01-29T15:20:29.054Z,97198.59
2023-01-29T15:22:55.731Z,97205.41
2023-01-29T15:25:22.971Z,97168.53
2023-01-29T15:27:50.422Z,97205.25
2023-01-29T15:30:26.081Z,97212.72
2023-01-29T15:32:52.763Z,97174.72
2023-01-29T15:35:25.120Z,97211.63
2023-01-29T15:38:06.545Z,97205.03
2023-01-29T15:40:34.539Z,97219.16
2023-01-29T15:43:01.130Z,97226.09
2023-01-29T15:45:30.139Z,97210.47
2023-01-29T15:48:07.652Z,97161.81
2023-01-29T15:50:39.195Z,97149.75
2023-01-29T15:53:13.267Z,97211.28
2023-01-29T15:55:40.541Z,97223.34
2023-01-29T15:58:12.578Z,97231.91
2023-01-29T16:00:39.329Z,97229.09
2023-01-29T16:03:15.601Z,97229.25
2023-01-29T16:05:42.851Z,97169.72
2023-01-29T16:08:14.114Z,97238.59
2023-01-29T16:10:42.224Z,97229.25
2023-01-29T16:13:22.266Z,97194.34
2023-01-29T16:15:59.551Z,97236.41
2023-01-29T16:18:34.529Z,97237.38
2023-01-29T16:21:06.561Z,97243.50
2023-01-29T16:23:41.936Z,97225.94
2023-01-29T16:26:14.832Z,97232.25
2023-01-29T16:28:46.139Z,97238.50
2023-01-29T16:31:20.831Z,97239.31
2023-01-29T16:33:47.745Z,97247.75
2023-01-29T16:36:20.586Z,97236.47
2023-01-29T16:38:56.964Z,97237.41
2023-01-29T16:41:26.336Z,97237.63
2023-01-29T16:43:56.409Z,97242.47
2023-01-29T16:46:33.701Z,97237.66
2023-01-29T16:49:00.833Z,97240.56
2023-01-29T16:51:31.805Z,97242.81
2023-01-29T16:54:23.356Z,97239.59
2023-01-29T16:56:56.040Z,97195.78
2023-01-29T16:59:39.805Z,97247.66
2023-01-29T17:02:22.645Z,97257.19
2023-01-29T17:04:51.173Z,97255.56
2023-01-29T17:07:22.417Z,97210.59
2023-01-29T17:09:54.257Z,97272.78
2023-01-29T17:12:25.277Z,97239.75
2023-01-29T17:15:00.930Z,97203.66
2023-01-29T17:17:38.679Z,97264.88
2023-01-29T17:20:16.814Z,97254.22
2023-01-29T17:22:44.722Z,97255.19
2023-01-29T17:25:15.833Z,97261.31
2023-01-29T17:27:45.312Z,97174.81
2023-01-29T17:30:16.743Z,97178.16
2023-01-29T17:32:45.162Z,97241.34
2023-01-29T17:35:17.023Z,97247.47
2023-01-29T17:37:44.409Z,97198.81
2023-01-29T17:40:35.470Z,97213.34
2023-01-29T17:43:02.090Z,97245.84
2023-01-29T17:45:29.027Z,97267.44
2023-01-29T17:47:55.905Z,97261.31
2023-01-29T17:50:27.184Z,97256.81
2023-01-29T17:52:54.108Z,97262.28
2023-01-29T17:55:20.891Z,97150.03
2023-01-29T17:57:48.353Z,97266.00
2023-01-29T18:00:22.060Z,97232.97
2023-01-29T18:02:49.240Z,97243.59
2023-01-29T18:05:17.249Z,97243.59
2023-01-29T18:07:46.003Z,97239.41
2023-01-29T18:10:21.436Z,97229.91
2023-01-29T18:12:48.237Z,97258.09
2023-01-29T18:15:15.781Z,97160.16
2023-01-29T18:17:43.453Z,97241.00
2023-01-29T18:20:19.327Z,97154.19
2023-01-29T18:22:46.444Z,97246.16
2023-01-29T18:25:13.774Z,97249.06
2023-01-29T18:27:40.472Z,97194.31
2023-01-29T18:30:08.037Z,97201.72
2023-01-29T18:32:35.003Z,97228.78
2023-01-29T18:35:01.662Z,97242.81
2023-01-29T18:37:29.428Z,97207.84
2023-01-29T18:39:56.061Z,97229.59
2023-01-29T18:42:23.043Z,97239.75
2023-01-29T18:44:49.909Z,97240.03
2023-01-29T18:47:17.021Z,97245.72
2023-01-29T18:49:43.922Z,97243.00
2023-01-29T18:52:10.582Z,97234.28
2023-01-29T18:54:37.267Z,97251.34
2023-01-29T18:57:12.827Z,97167.75
2023-01-29T18:59:40.976Z,97249.09
2023-01-29T19:02:07.849Z,97261.03
2023-01-29T19:04:34.959Z,97251.03
2023-01-29T19:07:01.729Z,97259.09
2023-01-29T19:09:28.618Z,97241.69
2023-01-29T19:11:55.358Z,97267.78
2023-01-29T19:14:21.955Z,97266.34
2023-01-29T19:16:50.339Z,97267.47
2023-01-29T19:19:17.905Z,97267.97
2023-01-29T19:21:44.560Z,97246.19
2023-01-29T19:24:12.747Z,97261.84
2023-01-29T19:26:41.106Z,97175.31
2023-01-29T19:29:09.579Z,97262.28
2023-01-29T19:31:36.890Z,97212.06
2023-01-29T19:34:03.923Z,97266.84
2023-01-29T19:36:31.176Z,97267.78
2023-01-29T19:38:58.031Z,97265.38
2023-01-29T19:41:25.112Z,97257.63
2023-01-29T19:43:52.065Z,97261.50
2023-01-29T19:46:18.636Z,97258.13
2023-01-29T19:48:46.622Z,97157.09
2023-01-29T19:51:14.403Z,97267.66
2023-01-29T19:53:45.007Z,97266.50
2023-01-29T19:56:14.638Z,97264.56
2023-01-29T19:58:41.811Z,97201.88
2023-01-29T20:01:20.702Z,97235.25
2023-01-29T20:03:49.682Z,97264.41
2023-01-29T20:06:20.620Z,97263.59
2023-01-29T20:08:47.717Z,97261.03
2023-01-29T20:11:16.445Z,97184.00
2023-01-29T20:13:43.843Z,97214.94
2023-01-29T20:16:10.507Z,97253.78
2023-01-29T20:18:38.173Z,97253.47
2023-01-29T20:21:10.393Z,97261.69
2023-01-29T20:23:39.067Z,97187.72
2023-01-29T20:26:11.871Z,97257.31
2023-01-29T20:28:38.659Z,97253.97
2023-01-29T20:31:07.444Z,97270.69
2023-01-29T20:33:38.749Z,97233.31
2023-01-29T20:36:08.088Z,97251.69
2023-01-29T20:38:34.885Z,97246.84
2023-01-29T20:41:05.719Z,97255.41
2023-01-29T20:43:34.323Z,97264.56
2023-01-29T20:46:01.831Z,97255.91
2023-01-29T20:48:28.567Z,97265.88
2023-01-29T20:50:55.255Z,97265.56
2023-01-29T20:53:21.928Z,97252.66
2023-01-29T20:55:48.716Z,97231.69
2023-01-29T20:58:15.540Z,97201.06
2023-01-29T21:00:42.423Z,97253.31
2023-01-29T21:03:09.188Z,97269.91
2023-01-29T21:05:36.016Z,97254.25
2023-01-29T21:08:02.618Z,97256.50
2023-01-29T21:10:29.215Z,97232.63
2023-01-29T21:12:55.759Z,97264.56
2023-01-29T21:15:23.392Z,97269.41
2023-01-29T21:17:50.041Z,97260.41
2023-01-29T21:20:17.076Z,97276.19
2023-01-29T21:22:44.097Z,97236.69
2023-01-29T21:25:11.515Z,97278.44
2023-01-29T21:27:38.075Z,97191.69
2023-01-29T21:30:05.324Z,97281.31
2023-01-29T21:32:32.591Z,97279.06
2023-01-29T21:34:59.194Z,97282.47
2023-01-29T21:37:25.784Z,97276.47
2023-01-29T21:39:52.380Z,97278.41
2023-01-29T21:42:37.312Z,97269.88
2023-01-29T21:45:04.367Z,97260.03
2023-01-29T21:47:30.917Z,97269.56
2023-01-29T21:49:57.456Z,97217.03
2023-01-29T21:52:24.056Z,97262.63
2023-01-29T21:54:51.086Z,97301.63
2023-01-29T21:57:17.876Z,97269.75
2023-01-29T21:59:47.356Z,97197.53
2023-01-29T22:02:18.865Z,97180.13
2023-01-29T22:04:45.514Z,97259.09
2023-01-29T22:07:12.762Z,97244.75
2023-01-29T22:09:40.061Z,97120.25
2023-01-29T22:12:08.446Z,97245.75
2023-01-29T22:14:35.090Z,97254.25
2023-01-29T22:17:01.890Z,97244.59
2023-01-29T22:19:29.431Z,97246.44
2023-01-29T22:21:56.403Z,97182.47
2023-01-29T22:24:23.043Z,97136.44
2023-01-29T22:26:49.738Z,97101.88
2023-01-29T22:29:19.738Z,97249.03
2023-01-29T22:31:46.760Z,97255.41
2023-01-29T22:34:14.534Z,97244.09
2023-01-29T22:36:41.152Z,97192.31
2023-01-29T22:39:08.852Z,97242.59
2023-01-29T22:41:36.063Z,97231.16
2023-01-29T22:44:02.745Z,97250.53
2023-01-29T22:46:29.403Z,97240.13
2023-01-29T22:48:56.605Z,97234.69
2023-01-29T22:51:23.323Z,97235.47
2023-01-29T22:53:54.950Z,97233.22
2023-01-29T22:56:26.884Z,97233.22
2023-01-29T22:58:55.547Z,97247.72
2023-01-29T23:01:27.673Z,97222.59
2023-01-29T23:03:54.268Z,97234.69
2023-01-29T23:06:24.307Z,97210.47
2023-01-29T23:08:51.696Z,97159.56
2023-01-29T23:11:20.863Z,97234.00
2023-01-29T23:13:52.480Z,97233.72
2023-01-29T23:16:21.427Z,97238.03
2023-01-29T23:18:53.527Z,97244.91
2023-01-29T23:21:22.306Z,97233.97
2023-01-29T23:23:49.235Z,97233.56
2023-01-29T23:26:34.368Z,97229.44
2023-01-29T23:29:01.052Z,97225.94
2023-01-29T23:31:27.767Z,97219.72
2023-01-29T23:33:54.400Z,97221.50
2023-01-29T23:36:21.482Z,97216.66
2023-01-29T23:38:48.111Z,97222.50
2023-01-29T23:41:14.846Z,97224.09
2023-01-29T23:43:41.521Z,97219.94
2023-01-29T23:46:08.047Z,97091.78
2023-01-29T23:48:34.636Z,97209.28
2023-01-29T23:51:01.373Z,97204.44
2023-01-29T23:53:28.042Z,97212.06
2023-01-29T23:55:57.511Z,97203.69
2023-01-29T23:58:24.291Z,97198.44
